createdAt,value
2023-04-05T00:01:03.691Z,23.03
2023-04-05T00:06:10.872Z,23.09
2023-04-05T00:11:18.109Z,23.07
2023-04-05T00:16:25.367Z,23.16
2023-04-05T00:21:32.569Z,23.17
2023-04-05T00:26:39.862Z,23.24
2023-04-05T00:31:47.173Z,23.29
2023-04-05T00:36:54.471Z,23.20
2023-04-05T00:42:01.749Z,23.35
2023-04-05T00:47:08.989Z,23.16
2023-04-05T00:52:16.255Z,23.44
2023-04-05T00:57:23.589Z,23.37
2023-04-05T01:02:31.068Z,23.50
2023-04-05T01:07:38.464Z,23.63
2023-04-05T01:12:45.852Z,23.48
2023-04-05T01:17:53.186Z,23.66
2023-04-05T01:23:10.682Z,23.63
2023-04-05T01:28:13.514Z,23.75
2023-04-05T01:33:25.864Z,23.68
2023-04-05T01:38:45.760Z,23.76
2023-04-05T01:43:50.734Z,23.76
2023-04-05T01:49:01.784Z,23.85
2023-04-05T01:54:10.821Z,23.81
2023-04-05T02:00:12.256Z,23.83
2023-04-05T02:05:07.055Z,24.02
2023-04-05T02:10:13.194Z,23.91
2023-04-05T02:15:25.837Z,24.06
2023-04-05T02:20:38.111Z,24.12
2023-04-05T02:25:48.840Z,24.19
2023-04-05T02:31:38.464Z,24.14
2023-04-05T02:36:55.371Z,24.22
2023-04-05T02:41:59.706Z,24.21
2023-04-05T02:47:07.342Z,24.16
2023-04-05T02:52:16.735Z,24.07
2023-04-05T02:57:24.809Z,24.02
2023-04-05T03:02:35.495Z,23.98
2023-04-05T03:07:44.089Z,23.82
2023-04-05T03:12:54.997Z,23.83
2023-04-05T03:17:59.905Z,23.78
2023-04-05T03:23:07.289Z,23.93
2023-04-05T03:28:14.892Z,23.92
2023-04-05T03:33:25.945Z,23.96
2023-04-05T03:38:33.233Z,23.90
2023-04-05T03:43:40.754Z,23.94
2023-04-05T03:48:48.122Z,24.08
2023-04-05T03:53:55.626Z,24.07
2023-04-05T03:59:38.070Z,24.05
2023-04-05T04:05:21.164Z,24.07
2023-04-05T04:10:31.364Z,24.03
2023-04-05T04:15:46.363Z,23.93
2023-04-05T04:20:54.076Z,23.88
2023-04-05T04:26:01.842Z,23.84
2023-04-05T04:31:28.841Z,23.79
2023-04-05T04:36:35.668Z,23.80
2023-04-05T04:41:49.903Z,23.63
2023-04-05T04:47:07.659Z,23.63
2023-04-05T04:52:16.477Z,23.68
2023-04-05T04:57:33.553Z,23.75
2023-04-05T05:02:40.892Z,23.77
2023-04-05T05:07:58.112Z,23.79
2023-04-05T05:13:10.323Z,23.91
2023-04-05T05:18:17.939Z,23.86
2023-04-05T05:23:25.375Z,23.81
2023-04-05T05:28:39.717Z,23.76
2023-04-05T05:34:05.959Z,23.73
2023-04-05T05:39:25.921Z,23.64
2023-04-05T05:44:32.033Z,23.61
2023-04-05T05:49:40.048Z,23.61
2023-04-05T05:55:06.534Z,23.57
2023-04-05T06:00:14.006Z,23.54
2023-04-05T06:05:24.029Z,23.56
2023-04-05T06:10:30.186Z,23.57
2023-04-05T06:15:53.354Z,23.59
2023-04-05T06:21:05.544Z,23.88
2023-04-05T06:27:01.066Z,24.02
2023-04-05T06:34:27.149Z,23.92
2023-04-05T06:37:42.179Z,23.87
2023-04-05T06:44:33.789Z,23.78
2023-04-05T06:48:40.313Z,23.83
2023-04-05T06:54:39.734Z,24.35
2023-04-05T06:59:07.328Z,24.94
2023-04-05T07:04:50.158Z,24.62
2023-04-05T07:09:57.500Z,24.51
2023-04-05T07:15:25.935Z,24.45
2023-04-05T07:20:48.860Z,24.39
2023-04-05T07:25:56.559Z,24.35
2023-04-05T07:31:08.940Z,24.33
2023-04-05T07:36:24.693Z,24.27
2023-04-05T07:41:34.658Z,24.31
2023-04-05T07:47:21.994Z,24.29
2023-04-05T07:52:36.042Z,24.30
2023-04-05T07:57:55.394Z,24.34
2023-04-05T08:03:35.846Z,24.35
2023-04-05T08:08:49.437Z,24.38
2023-04-05T08:14:36.677Z,24.42
2023-04-05T08:19:59.381Z,24.45
2023-04-05T08:25:43.516Z,24.45
2023-04-05T08:31:01.525Z,24.52
2023-04-05T08:36:11.165Z,24.54
2023-04-05T08:41:58.461Z,24.50
2023-04-05T08:47:41.031Z,24.63
2023-04-05T08:53:29.754Z,24.77
2023-04-05T08:58:44.408Z,24.85
2023-04-05T09:04:00.648Z,24.84
2023-04-05T09:09:01.817Z,24.95
2023-04-05T09:14:44.505Z,24.97
2023-04-05T09:20:02.467Z,25.03
2023-04-05T09:25:06.549Z,25.13
2023-04-05T09:30:13.980Z,25.17
2023-04-05T09:35:21.707Z,25.17
2023-04-05T09:40:38.917Z,25.15
2023-04-05T09:45:46.265Z,25.31
2023-04-05T09:50:56.518Z,25.49
2023-04-05T09:56:16.191Z,25.40
2023-04-05T10:01:23.738Z,25.54
2023-04-05T10:06:31.500Z,25.71
2023-04-05T10:11:39.032Z,25.75
2023-04-05T10:16:46.676Z,25.52
2023-04-05T10:21:54.091Z,25.73
2023-04-05T10:27:01.470Z,25.88
2023-04-05T10:32:08.920Z,25.98
2023-04-05T10:37:16.333Z,25.84
2023-04-05T10:42:23.668Z,25.94
2023-04-05T10:47:31.218Z,26.11
2023-04-05T10:52:38.540Z,26.25
2023-04-05T10:57:45.932Z,25.99
2023-04-05T11:02:53.444Z,25.65
2023-04-05T11:08:00.918Z,25.84
2023-04-05T11:13:08.360Z,26.24
2023-04-05T11:18:16.009Z,25.90
2023-04-05T11:23:26.464Z,26.19
2023-04-05T11:28:33.837Z,26.20
2023-04-05T11:33:41.298Z,26.20
2023-04-05T11:38:48.843Z,25.89
2023-04-05T11:43:56.298Z,26.28
2023-04-05T11:49:03.935Z,26.26
2023-04-05T11:54:11.621Z,25.97
2023-04-05T11:59:19.228Z,26.47
2023-04-05T12:04:32.048Z,26.15
2023-04-05T12:10:14.378Z,26.75
2023-04-05T12:15:21.939Z,26.55
2023-04-05T12:20:47.397Z,26.28
2023-04-05T12:25:49.401Z,26.56
2023-04-05T12:30:56.866Z,26.60
2023-04-05T12:36:10.148Z,26.52
2023-04-05T12:41:52.564Z,26.51
2023-04-05T12:47:12.038Z,26.58
2023-04-05T12:52:19.460Z,26.58
2023-04-05T12:57:26.931Z,26.47
2023-04-05T13:02:34.792Z,26.31
2023-04-05T13:07:45.577Z,26.28
2023-04-05T13:12:53.156Z,26.31
2023-04-05T13:18:00.595Z,26.02
2023-04-05T13:23:08.096Z,26.24
2023-04-05T13:28:50.437Z,26.47
2023-04-05T13:33:58.036Z,26.33
2023-04-05T13:39:41.476Z,26.00
2023-04-05T13:50:11.243Z,26.62
2023-04-05T13:55:18.729Z,26.11
2023-04-05T14:00:35.289Z,26.55
2023-04-05T14:05:53.063Z,26.16
2023-04-05T14:10:58.405Z,26.28
2023-04-05T14:16:05.925Z,26.55
2023-04-05T14:21:13.225Z,26.45
2023-04-05T14:26:20.603Z,26.48
2023-04-05T14:31:31.263Z,26.39
2023-04-05T14:36:38.768Z,26.34
2023-04-05T14:41:46.193Z,26.19
2023-04-05T14:46:53.428Z,26.30
2023-04-05T14:52:00.884Z,26.29
2023-04-05T14:57:18.317Z,25.84
2023-04-05T15:02:37.057Z,25.54
2023-04-05T15:07:56.948Z,25.96
2023-04-05T15:13:39.753Z,25.81
2023-04-05T15:19:37.427Z,25.69
2023-04-05T15:24:45.001Z,26.34
2023-04-05T15:30:01.570Z,26.01
2023-04-05T15:35:15.212Z,26.12
2023-04-05T15:40:26.842Z,26.36
2023-04-05T15:45:34.389Z,26.35
2023-04-05T15:50:42.031Z,26.35
2023-04-05T15:56:29.539Z,26.01
2023-04-05T16:01:39.961Z,26.19
2023-04-05T16:06:52.150Z,26.16
2023-04-05T16:11:59.562Z,26.08
2023-04-05T16:17:07.185Z,26.07
2023-04-05T16:22:14.586Z,25.97
2023-04-05T16:27:22.328Z,26.08
2023-04-05T16:33:04.875Z,26.09
2023-04-05T16:38:33.320Z,25.31
2023-04-05T16:43:25.230Z,25.46
2023-04-05T16:48:32.715Z,25.12
2023-04-05T16:53:49.531Z,25.76
2023-04-05T16:59:07.582Z,25.14
2023-04-05T17:04:13.018Z,25.32
2023-04-05T17:09:26.571Z,25.40
2023-04-05T17:14:41.502Z,26.19
2023-04-05T17:20:43.162Z,26.28
2023-04-05T17:25:01.795Z,26.25
2023-04-05T17:30:09.155Z,26.09
2023-04-05T17:35:16.572Z,25.96
2023-04-05T17:40:24.531Z,25.84
2023-04-05T17:45:32.218Z,25.74
2023-04-05T17:51:15.514Z,25.62
2023-04-05T17:56:44.484Z,25.53
2023-04-05T18:01:43.563Z,25.43
2023-04-05T18:07:05.998Z,25.32
2023-04-05T18:12:13.253Z,25.25
2023-04-05T18:17:20.497Z,25.18
2023-04-05T18:22:27.719Z,25.10
2023-04-05T18:27:35.113Z,25.01
2023-04-05T18:32:42.633Z,24.92
2023-04-05T18:37:49.943Z,24.83
2023-04-05T18:42:57.233Z,24.75
2023-04-05T18:48:04.468Z,24.67
2023-04-05T18:53:11.718Z,24.59
2023-04-05T18:58:19.086Z,24.56
2023-04-05T19:03:27.280Z,24.48
2023-04-05T19:08:34.564Z,24.40
2023-04-05T19:13:41.992Z,24.29
2023-04-05T19:18:49.130Z,24.27
2023-04-05T19:23:56.344Z,24.21
2023-04-05T19:29:03.563Z,24.14
2023-04-05T19:34:10.861Z,24.07
2023-04-05T19:39:18.404Z,23.92
2023-04-05T19:44:25.802Z,23.58
2023-04-05T19:49:33.058Z,23.40
2023-04-05T19:54:40.555Z,23.44
2023-04-05T19:59:47.933Z,23.31
2023-04-05T20:04:55.111Z,23.11
2023-04-05T20:10:02.435Z,22.69
2023-04-05T20:15:09.679Z,22.73
2023-04-05T20:20:16.869Z,22.65
2023-04-05T20:25:24.129Z,22.42
2023-04-05T20:30:31.340Z,22.33
2023-04-05T20:35:38.534Z,22.28
2023-04-05T20:40:45.690Z,22.14
2023-04-05T20:45:53.025Z,21.96
2023-04-05T20:51:00.062Z,21.75
2023-04-05T20:56:07.334Z,21.63
2023-04-05T21:01:14.562Z,21.65
2023-04-05T21:06:21.715Z,21.71
2023-04-05T21:11:28.897Z,21.54
2023-04-05T21:16:36.099Z,21.52
2023-04-05T21:21:43.271Z,21.42
2023-04-05T21:26:50.764Z,21.17
2023-04-05T21:32:34.075Z,21.27
2023-04-05T21:38:16.544Z,21.29
2023-04-05T21:43:25.854Z,21.39
2023-04-05T21:48:39.755Z,21.43
2023-04-05T21:53:47.090Z,21.51
2023-04-05T21:58:54.507Z,21.62
2023-04-05T22:04:01.810Z,21.65
2023-04-05T22:09:09.270Z,21.74
2023-04-05T22:14:16.334Z,21.78
2023-04-05T22:19:23.631Z,21.86
2023-04-05T22:24:30.794Z,21.94
2023-04-05T22:29:37.987Z,21.99
2023-04-05T22:34:45.189Z,22.05
2023-04-05T22:39:52.367Z,22.16
2023-04-05T22:44:59.510Z,22.27
2023-04-05T22:50:06.839Z,22.30
2023-04-05T22:55:13.892Z,22.38
2023-04-05T23:00:21.082Z,22.43
2023-04-05T23:05:28.412Z,22.50
2023-04-05T23:10:35.719Z,22.57
2023-04-05T23:15:43.166Z,22.63
2023-04-05T23:20:52.645Z,22.67
2023-04-05T23:26:10.936Z,22.78
2023-04-05T23:31:18.389Z,22.81
2023-04-05T23:36:29.172Z,22.81
2023-04-05T23:41:36.799Z,22.84
2023-04-05T23:46:47.141Z,22.91
2023-04-05T23:51:56.055Z,22.92
2023-04-05T23:57:12.649Z,22.93
